F/V Matmaco — FVNS — position and weather

sailwx.info

Track history (hours):
 
Tides and Currents Weather Stations Pressure Air Temp Water Temp Dewpoint Dewpoint Depression Visibility Wind Speed Wind Dir Waves Ship Positions

F/V Matmaco

Last reported at 2017-Aug-22 18:32 UTC. Time now 2017-Aug-22 20:47 UTC.
Position N 46°39' W 003°07'.

Length 20 m.

Type: Other ship. MMSI: 228194000.

Date/timePositionNaut miles runAvg speedWind from/ knotsBaromVisibWave heightAir tempDewpointWater temp
2017-Aug-22 18:32N 46°39' W 003°07'0 3.5
2017-Aug-22 18:30N 46°39' W 003°07'11 1.7
2017-Aug-22 11:49N 46°29' W 002°59'1 2.5
2017-Aug-22 11:30N 46°29' W 003°00'13 1.8
2017-Aug-22 04:31N 46°41' W 003°06'0 4.3
2017-Aug-22 04:30N 46°41' W 003°06'2 2.5
2017-Aug-22 03:48N 46°40' W 003°05'1 2.8
2017-Aug-22 03:28N 46°39' W 003°04'9 3.4
2017-Aug-22 00:49N 46°32' W 002°57'5 0.4
2017-Aug-21 12:07N 46°28' W 003°01'1 3.8
2017-Aug-21 11:54N 46°28' W 003°02'1 3.0
2017-Aug-21 11:27N 46°27' W 003°01'2 3.5
2017-Aug-21 10:52N 46°26' W 002°58'1 3.4
2017-Aug-21 10:30N 46°26' W 002°56'1 2.7
2017-Aug-21 09:57N 46°26' W 002°58'2 3.5
2017-Aug-21 09:18N 46°27' W 003°01'3 3.5
2017-Aug-21 08:34N 46°29' W 003°04'0 2.2
2017-Aug-21 08:30N 46°29' W 003°04'5 3.3
2017-Aug-21 06:52N 46°34' W 003°06'1 3.6
2017-Aug-21 06:30N 46°35' W 003°06'2 3.7
2017-Aug-21 05:59N 46°37' W 003°07'6 4.2
2017-Aug-21 04:36N 46°43' W 003°05'32 9.1
2017-Aug-21 01:01N 47°11' W 002°41'1 8.3
2017-Aug-21 00:53N 47°12' W 002°40'4 8.6
2017-Aug-21 00:25N 47°15' W 002°37'4 7.9
2017-Aug-20 23:56N 47°19' W 002°34'3 3.5
2017-Aug-20 23:12N 47°18' W 002°31'0 0.0
2017-Aug-20 23:00N 47°18' W 002°31'0 0.0
2017-Aug-19 03:37N 47°18' W 002°31'0 0.1
2017-Aug-19 03:30N 47°18' W 002°31'0 0.0
2017-Aug-19 03:00N 47°18' W 002°31'0 0.0
2017-Aug-19 02:30N 47°18' W 002°31'0 0.1
2017-Aug-19 01:57N 47°18' W 002°31'0 0.0
2017-Aug-19 01:29N 47°18' W 002°31'0 0.1
2017-Aug-19 01:00N 47°18' W 002°31'0 0.0
2017-Aug-19 00:29N 47°18' W 002°31'3 4.8
2017-Aug-18 23:54N 47°18' W 002°35'4 9.0
2017-Aug-18 23:28N 47°14' W 002°37'1 0.0
2017-Aug-17 00:42N 47°14' W 002°38'2 8.6
2017-Aug-17 00:30N 47°15' W 002°37'4 8.5
2017-Aug-17 00:00N 47°19' W 002°33'2 3.9
2017-Aug-16 23:27N 47°18' W 002°31'1 2.5
2017-Aug-16 22:52N 47°19' W 002°32'3 8.2
2017-Aug-16 22:28N 47°17' W 002°36'4 9.4
2017-Aug-16 22:00N 47°13' W 002°38'8 9.5
2017-Aug-16 21:11N 47°05' W 002°42'2 9.5
2017-Aug-16 20:57N 47°03' W 002°43'4 9.6
2017-Aug-16 20:29N 46°59' W 002°46'5 9.5
2017-Aug-16 20:00N 46°55' W 002°48'5 9.3
2017-Aug-16 19:30N 46°51' W 002°51'6 9.4
2017-Aug-16 18:54N 46°45' W 002°54'4 9.7
2017-Aug-16 18:30N 46°42' W 002°56'5 5.3
2017-Aug-16 17:31N 46°37' W 002°58'1 3.8
2017-Aug-16 17:12N 46°36' W 002°58'2 3.9
2017-Aug-16 16:48N 46°34' W 002°58'6 0.2
2017-Aug-15 04:48N 46°39' W 003°02'5 8.7
2017-Aug-15 04:12N 46°44' W 002°59'3 8.8
2017-Aug-15 03:52N 46°47' W 002°57'3 9.0
2017-Aug-15 03:30N 46°50' W 002°55'5 8.9
2017-Aug-15 03:00N 46°54' W 002°52'4 9.0
2017-Aug-15 02:30N 46°58' W 002°49'5 9.3
2017-Aug-15 02:00N 47°02' W 002°46'5 9.4
2017-Aug-15 01:30N 47°06' W 002°43'5 9.7
2017-Aug-15 01:00N 47°10' W 002°40'5 9.8
2017-Aug-15 00:30N 47°15' W 002°37'5 9.3
2017-Aug-14 23:58N 47°19' W 002°33'38 0.8
2017-Aug-13 02:00N 46°42' W 002°49'12 8.8
2017-Aug-13 00:41N 46°53' W 002°45'4 9.2
2017-Aug-13 00:14N 46°57' W 002°43'5 8.7
2017-Aug-12 23:39N 47°02' W 002°41'2 9.2
2017-Aug-12 23:26N 47°04' W 002°40'5 9.4
2017-Aug-12 22:52N 47°09' W 002°38'3 9.5
2017-Aug-12 22:30N 47°13' W 002°37'5 9.4
2017-Aug-12 22:00N 47°17' W 002°35'3 5.8
2017-Aug-12 21:30N 47°19' W 002°31'  
Track history (hours):
 
Tides and Currents Weather Stations Pressure Air Temp Water Temp Dewpoint Dewpoint Depression Visibility Wind Speed Wind Dir Waves Ship Positions

F/V Matmaco

Last reported at 2017-Aug-22 18:32 UTC. Time now 2017-Aug-22 20:47 UTC.
Position N 46°39' W 003°07'.

Length 20 m.

Type: Other ship. MMSI: 228194000.

Date/timePositionNaut miles runAvg speedWind from/ knotsBaromVisibWave heightAir tempDewpointWater temp
2017-Aug-22 18:32N 46°39' W 003°07'0 3.5
2017-Aug-22 18:30N 46°39' W 003°07'11 1.7
2017-Aug-22 11:49N 46°29' W 002°59'1 2.5
2017-Aug-22 11:30N 46°29' W 003°00'13 1.8
2017-Aug-22 04:31N 46°41' W 003°06'0 4.3
2017-Aug-22 04:30N 46°41' W 003°06'2 2.5
2017-Aug-22 03:48N 46°40' W 003°05'1 2.8
2017-Aug-22 03:28N 46°39' W 003°04'9 3.4
2017-Aug-22 00:49N 46°32' W 002°57'5 0.4
2017-Aug-21 12:07N 46°28' W 003°01'1 3.8
2017-Aug-21 11:54N 46°28' W 003°02'1 3.0
2017-Aug-21 11:27N 46°27' W 003°01'2 3.5
2017-Aug-21 10:52N 46°26' W 002°58'1 3.4
2017-Aug-21 10:30N 46°26' W 002°56'1 2.7
2017-Aug-21 09:57N 46°26' W 002°58'2 3.5
2017-Aug-21 09:18N 46°27' W 003°01'3 3.5
2017-Aug-21 08:34N 46°29' W 003°04'0 2.2
2017-Aug-21 08:30N 46°29' W 003°04'5 3.3
2017-Aug-21 06:52N 46°34' W 003°06'1 3.6
2017-Aug-21 06:30N 46°35' W 003°06'2 3.7
2017-Aug-21 05:59N 46°37' W 003°07'6 4.2
2017-Aug-21 04:36N 46°43' W 003°05'32 9.1
2017-Aug-21 01:01N 47°11' W 002°41'1 8.3
2017-Aug-21 00:53N 47°12' W 002°40'4 8.6
2017-Aug-21 00:25N 47°15' W 002°37'4 7.9
2017-Aug-20 23:56N 47°19' W 002°34'3 3.5
2017-Aug-20 23:12N 47°18' W 002°31'0 0.0
2017-Aug-20 23:00N 47°18' W 002°31'0 0.0
2017-Aug-19 03:37N 47°18' W 002°31'0 0.1
2017-Aug-19 03:30N 47°18' W 002°31'0 0.0
2017-Aug-19 03:00N 47°18' W 002°31'0 0.0
2017-Aug-19 02:30N 47°18' W 002°31'0 0.1
2017-Aug-19 01:57N 47°18' W 002°31'0 0.0
2017-Aug-19 01:29N 47°18' W 002°31'0 0.1
2017-Aug-19 01:00N 47°18' W 002°31'0 0.0
2017-Aug-19 00:29N 47°18' W 002°31'3 4.8
2017-Aug-18 23:54N 47°18' W 002°35'4 9.0
2017-Aug-18 23:28N 47°14' W 002°37'1 0.0
2017-Aug-17 00:42N 47°14' W 002°38'2 8.6
2017-Aug-17 00:30N 47°15' W 002°37'4 8.5
2017-Aug-17 00:00N 47°19' W 002°33'2 3.9
2017-Aug-16 23:27N 47°18' W 002°31'1 2.5
2017-Aug-16 22:52N 47°19' W 002°32'3 8.2
2017-Aug-16 22:28N 47°17' W 002°36'4 9.4
2017-Aug-16 22:00N 47°13' W 002°38'8 9.5
2017-Aug-16 21:11N 47°05' W 002°42'2 9.5
2017-Aug-16 20:57N 47°03' W 002°43'4 9.6
2017-Aug-16 20:29N 46°59' W 002°46'5 9.5
2017-Aug-16 20:00N 46°55' W 002°48'5 9.3
2017-Aug-16 19:30N 46°51' W 002°51'6 9.4
2017-Aug-16 18:54N 46°45' W 002°54'4 9.7
2017-Aug-16 18:30N 46°42' W 002°56'5 5.3
2017-Aug-16 17:31N 46°37' W 002°58'1 3.8
2017-Aug-16 17:12N 46°36' W 002°58'2 3.9
2017-Aug-16 16:48N 46°34' W 002°58'6 0.2
2017-Aug-15 04:48N 46°39' W 003°02'5 8.7
2017-Aug-15 04:12N 46°44' W 002°59'3 8.8
2017-Aug-15 03:52N 46°47' W 002°57'3 9.0
2017-Aug-15 03:30N 46°50' W 002°55'5 8.9
2017-Aug-15 03:00N 46°54' W 002°52'4 9.0
2017-Aug-15 02:30N 46°58' W 002°49'5 9.3
2017-Aug-15 02:00N 47°02' W 002°46'5 9.4
2017-Aug-15 01:30N 47°06' W 002°43'5 9.7
2017-Aug-15 01:00N 47°10' W 002°40'5 9.8
2017-Aug-15 00:30N 47°15' W 002°37'5 9.3
2017-Aug-14 23:58N 47°19' W 002°33'38 0.8
2017-Aug-13 02:00N 46°42' W 002°49'12 8.8
2017-Aug-13 00:41N 46°53' W 002°45'4 9.2
2017-Aug-13 00:14N 46°57' W 002°43'5 8.7
2017-Aug-12 23:39N 47°02' W 002°41'2 9.2
2017-Aug-12 23:26N 47°04' W 002°40'5 9.4
2017-Aug-12 22:52N 47°09' W 002°38'3 9.5
2017-Aug-12 22:30N 47°13' W 002°37'5 9.4
2017-Aug-12 22:00N 47°17' W 002°35'3 5.8
2017-Aug-12 21:30N 47°19' W 002°31'  

Dump ship's entire track history